createdAt,value
2016-05-29T00:02:56.409Z,71.59
2016-05-29T00:17:50.512Z,72.69
2016-05-29T00:33:00.959Z,72.23
2016-05-29T00:47:49.249Z,73.2
2016-05-29T01:02:58.805Z,74.88
2016-05-29T01:17:50.502Z,75.3
2016-05-29T01:32:50.621Z,75.17
2016-05-29T01:47:52.645Z,76.08
2016-05-29T02:02:50.419Z,76.07
2016-05-29T02:17:48.520Z,76.95
2016-05-29T02:32:48.482Z,75.66
2016-05-29T02:47:50.616Z,77.33
2016-05-29T03:02:58.768Z,77.63
2016-05-29T03:17:48.447Z,79.96
2016-05-29T03:33:05.224Z,80.38
2016-05-29T03:47:50.434Z,80.64
2016-05-29T04:02:50.552Z,82.3
2016-05-29T04:17:50.592Z,83.5
2016-05-29T04:32:54.729Z,84.44
2016-05-29T04:47:54.832Z,84.41
2016-05-29T05:02:48.526Z,86.05
2016-05-29T05:17:50.598Z,88.39
2016-05-29T05:32:50.622Z,88.85
2016-05-29T05:47:50.631Z,88.16
2016-05-29T06:02:58.722Z,88.62
2016-05-29T06:17:50.634Z,88.94
2016-05-29T06:32:48.581Z,89.72
2016-05-29T06:47:54.871Z,90.03
2016-05-29T07:02:50.630Z,90.31
2016-05-29T07:17:59.141Z,89.95
2016-05-29T07:32:58.135Z,90.66
2016-05-29T07:47:54.860Z,90.15
2016-05-29T08:02:50.589Z,90.73
2016-05-29T08:17:50.628Z,91
2016-05-29T08:32:50.459Z,91.01
2016-05-29T08:47:50.817Z,91.13
2016-05-29T09:02:48.784Z,91.33
2016-05-29T09:17:50.761Z,91.35
2016-05-29T09:32:48.739Z,91.35
2016-05-29T09:47:52.780Z,91.63
2016-05-29T10:02:50.304Z,91.76
2016-05-29T10:17:55.219Z,91.48
2016-05-29T10:32:53.306Z,91.89
2016-05-29T10:48:04.335Z,92.32
2016-05-29T11:02:54.403Z,92
2016-05-29T11:17:50.240Z,91.78
2016-05-29T11:32:54.984Z,91.8
2016-05-29T11:47:52.977Z,91.77
2016-05-29T12:02:50.892Z,91.64
2016-05-29T12:17:48.855Z,91.46
2016-05-29T12:32:53.020Z,91.55
2016-05-29T12:47:51.638Z,90.78
2016-05-29T13:02:54.944Z,90.29
2016-05-29T13:17:50.906Z,90.21
2016-05-29T13:32:49.229Z,89.99
2016-05-29T13:47:50.893Z,90.73
2016-05-29T14:02:48.981Z,90.09
2016-05-29T14:17:53.067Z,89.77
2016-05-29T14:32:53.436Z,87.45
2016-05-29T14:47:55.227Z,88.2
2016-05-29T15:02:48.814Z,85.74
